»·PEaware :: N517DL KSNA-KSBD

N517DL :: KSNA-KSBD

FLIGHT INFORMATION

Flight Status: Arrived
Operator: Privately registered:
United States
More flights under this callsign
Pilot: John A. (34961)
Aircraft: CESSNA 172 SKYHAWK
(C172)
More flights by this aircraft type
Origin: KSNA John Wayne-Orange Co
United States
Destination: KSBD San Bernardino Intl
United States
More flights between these airports :: More routes between these airports
Route: SLI V8 PDZ
File this flight plan on PilotEdge
Remarks: I-4 rating
Altitude:
(Current/Filed)
5,000ft
Speed:
(Current/Filed)
110kts
Departed: 25-Jun-21 02:22 PM
Arrived: 25-Jun-21 02:55 PM
Distance/Time
Traveled:
41nm/0:33
Distance/Time
To Go:
Arrived

Flight Plot

Page will automatically refresh every two minutes.


Map Options




Map Legend


Flown Route
Filed Route
Departure Airport
Arrival Airport
Navaid (VOR, NDB)
Fix

Horizontal Profiles

Position Reports

Time Latitude Longitude Heading Altitude Ground
Speed
25-Jun-21 14:02 33.673759 -117.865742 119 60ft 0kts
25-Jun-21 14:03 33.673759 -117.865742 119 60ft 0kts
25-Jun-21 14:05 33.673759 -117.865742 119 60ft 0kts
25-Jun-21 14:05 33.673759 -117.865742 119 60ft 0kts
25-Jun-21 14:06 33.673759 -117.865742 119 60ft 0kts
25-Jun-21 14:07 33.673759 -117.865742 119 60ft 0kts
25-Jun-21 14:08 33.673759 -117.865742 119 60ft 0kts
25-Jun-21 14:09 33.673759 -117.865742 119 60ft 0kts
25-Jun-21 14:10 33.673759 -117.865742 119 60ft 0kts
25-Jun-21 14:11 33.673759 -117.865742 119 60ft 0kts
25-Jun-21 14:12 33.673759 -117.865742 119 60ft 0kts
25-Jun-21 14:13 33.673751 -117.865726 121 60ft 2kts
25-Jun-21 14:14 33.673651 -117.866796 289 60ft 3kts
25-Jun-21 14:15 33.676546 -117.865570 29 60ft 16kts
25-Jun-21 14:16 33.679794 -117.863528 5 60ft 7kts
25-Jun-21 14:17 33.679963 -117.863642 302 60ft 0kts
25-Jun-21 14:18 33.679963 -117.863642 302 60ft 0kts
25-Jun-21 14:19 33.679963 -117.863642 302 60ft 0kts
25-Jun-21 14:20 33.679851 -117.864346 205 60ft 14kts
25-Jun-21 14:21 33.665949 -117.874876 226 644ft 71kts
25-Jun-21 14:22 33.656392 -117.895852 244 1452ft 72kts
25-Jun-21 14:23 33.647886 -117.917085 239 2227ft 70kts
25-Jun-21 14:24 33.638827 -117.937837 240 2944ft 69kts
25-Jun-21 14:25 33.630028 -117.958725 250 3605ft 71kts
25-Jun-21 14:26 33.648165 -117.963037 1 4203ft 89kts
25-Jun-21 14:27 33.672257 -117.961137 354 4831ft 85kts
25-Jun-21 14:28 33.701120 -117.957214 1 5069ft 123kts
25-Jun-21 14:29 33.734259 -117.950094 6 4974ft 119kts
25-Jun-21 14:30 33.766388 -117.943613 1 5029ft 115kts
25-Jun-21 14:31 33.798690 -117.938531 3 5085ft 116kts
25-Jun-21 14:32 33.829975 -117.928535 55 5061ft 127kts
25-Jun-21 14:33 33.827034 -117.887389 99 5081ft 126kts
25-Jun-21 14:34 33.834977 -117.846373 68 5086ft 128kts
25-Jun-21 14:35 33.845921 -117.805534 69 5075ft 129kts
25-Jun-21 14:36 33.856702 -117.764559 73 5048ft 128kts
25-Jun-21 14:37 33.864282 -117.722619 64 4987ft 125kts
25-Jun-21 14:38 33.874950 -117.683522 65 4972ft 122kts
25-Jun-21 14:39 33.888108 -117.647537 84 5017ft 117kts
25-Jun-21 14:40 33.895779 -117.610322 75 5049ft 114kts
25-Jun-21 14:41 33.906635 -117.574160 70 5028ft 115kts
25-Jun-21 14:42 33.913441 -117.536238 64 5015ft 115kts
25-Jun-21 14:43 33.932251 -117.505840 48 5006ft 115kts
25-Jun-21 14:44 33.951327 -117.474371 51 4970ft 118kts
25-Jun-21 14:45 33.971267 -117.443184 43 4958ft 118kts
25-Jun-21 14:46 33.990439 -117.410288 46 4961ft 119kts
25-Jun-21 14:47 34.011456 -117.378588 53 4967ft 121kts
25-Jun-21 14:48 34.029208 -117.343230 54 4958ft 124kts
25-Jun-21 14:49 34.049558 -117.309194 51 4571ft 123kts
25-Jun-21 14:50 34.064766 -117.273974 71 3406ft 117kts
25-Jun-21 14:51 34.078574 -117.239291 62 2311ft 113kts
25-Jun-21 14:52 34.089121 -117.208307 45 1881ft 92kts
25-Jun-21 14:53 34.100720 -117.216570 246 1253ft 74kts
25-Jun-21 14:54 34.098007 -117.227665 26 1137ft 15kts
25-Jun-21 14:55 34.098752 -117.226947 34 1138ft 6kts
25-Jun-21 14:56 34.101005 -117.225079 32 1145ft 7kts

Navigation Log

Ident Type
Flight plan parsing failed, navigation log unavailable